EDDMRJAA

Guest
Details From EDDM - Muenchen Franz-josef Strauss
To RJAA - Narita Intl
Flight Number -
Tags Generated
Created
Modified
Stats Distance 5,059 nm / 9,369 km
Max Altitude 0 ft / 0 m
Waypoints 9
Social Downloads 2
Likes 0
Share VATSIM

Download

Looking for another format? Having issues loading an existing format? Contact us
Advertisement - Login to hide

Notes

Generated

Route

EDDM UVSOV SMILA ULAN MASUL OGERI LIKDI HKE RJAA

ID Type Via Altitude Latitude Longitude Leg Dist Tot Dist Heading (true) Name
O EDDM APT - 0 ft / 0 m 48.34069˚ 11.75108˚ - 0 nm - -
UVSOV FIX - 0 ft / 0 m 50.95306˚ 15.29333˚ 208 nm 208 nm 40° / 43° -
SMILA FIX - 0 ft / 0 m 56.17000˚ 24.70944˚ 458 nm 667 nm 43° / 51° -
ULAN FIX - 0 ft / 0 m 62.11667˚ 42.90000˚ 661 nm 1328 nm 50° / 66° -
MASUL FIX - 0 ft / 0 m 64.91667˚ 66.66667˚ 654 nm 1982 nm 65° / 86° -
OGERI FIX - 0 ft / 0 m 59.98333˚ 105.38333˚ 1096 nm 3078 nm 88° / 122° -
LIKDI FIX - 0 ft / 0 m 57.86667˚ 111.36667˚ 224 nm 3303 nm 122° / 127° -
HKE VOR - 0 ft / 0 m 35.80896˚ 140.37539˚ 1755 nm 5058 nm 126° / 148° HOKUSO VOR-DME
O RJAA APT - 0 ft / 0 m 35.80271˚ 140.37991˚ 0 nm 5058 nm 150° / 150° -

Altitude Profile

Advertisement - Login to hide

Weather


0- 5 10 15 20 25 30 35+ Temperature / ° C

Clouds and Precipitation
Forecast for 2017-12-14 00:00 UTC. Updated 2 hours ago

Ground ~20,000 ft ~40,000 ft Winds

EDDM

Details ICAO EDDM (MUC)
Name Muenchen Franz-Josef Strauss
Region Germany - Civil
Timezone Europe/Berlin (UTC+1.0)
Stats Elevation 1,487 ft / 453 m (AMSL)
Location 48.353786° 11.786117°
Runways 2
Magnetic Variation 3.161° E

METAR

EDDM 140050Z 20008KT 9999 RA FEW010 SCT014 BKN028 02/M01 Q0999 TEMPO BKN014

Decode

TAF

TAF EDDM 132300Z 1400/1506 17008KT 9999 SCT020 BKN040 BECMG 1400/1403 24015G30KT PROB40 TEMPO 1401/1410 26020G40KT 4000 SHRA BKN030CB BECMG 1416/1418 22010KT TEMPO 1422/1504 4000 RASN BKN012

Decode

Departure Runways

ID Width Length Bearing (true) Bearing (mag) Surface Threshold Offset Overrun Length
08L 197 ft / 60 m 13,086 ft / 3,989 m 83.38° 80.22° Concrete 0 ft / 0 m 0 ft / 0 m
08R 197 ft / 60 m 13,086 ft / 3,989 m 83.37° 80.21° Concrete 0 ft / 0 m 0 ft / 0 m
26L 197 ft / 60 m 13,086 ft / 3,989 m 263.41° 260.25° Concrete 0 ft / 0 m 0 ft / 0 m
26R 197 ft / 60 m 13,086 ft / 3,989 m 263.42° 260.26° Concrete 0 ft / 0 m 0 ft / 0 m

RJAA

Details ICAO RJAA (NRT)
Name NARITA INTL
Region Japan
Timezone Asia/Tokyo (UTC+9.0)
Stats Elevation 141 ft / 43 m (AMSL)
Location 35.776552° 140.382770°
Runways 2
Magnetic Variation 7.405° W

METAR

RJAA 140100Z 31012G22KT 280V350 9999 FEW030 06/M06 Q1020 NOSIG RMK 1CU030 A3013

Decode

TAF

TAF RJAA 132306Z 1400/1506 33012KT 9999 FEW030= TAF RJBB 132305Z 1400/1506 34015KT 9999 FEW020 SCT050 BECMG 1415/1418 04008KT

Decode

Destination Runways

ID Width Length Bearing (true) Bearing (mag) Surface Threshold Offset Overrun Length
16L 196 ft / 60 m 7,162 ft / 2,183 m 149.61° 157.02° Asphalt 190 ft / 58 m 0 ft / 0 m
16R 196 ft / 60 m 13,142 ft / 4,006 m 149.61° 157.02° Asphalt 0 ft / 0 m 410 ft / 125 m
34L 196 ft / 60 m 13,142 ft / 4,006 m 329.62° 337.03° Asphalt 0 ft / 0 m 415 ft / 126 m
34R 196 ft / 60 m 7,162 ft / 2,183 m 329.62° 337.03° Asphalt 190 ft / 58 m 0 ft / 0 m

Approach Navaids

Runway Type Ident Frequency Range Bearing (true) Bearing (mag) Slope Elevation
16L Localiser ITM 110.70 MHz 18 nm / 33 km 149.62° 157.02° - 141 ft / 43 m (AMSL)
16L Glidescope ITM 110.70 MHz 10 nm / 19 km 149.62° 157.02° 3.00° 141 ft / 43 m (AMSL)
16L DME ITM 110.70 MHz 18 nm / 33 km - - - 145 ft / 44 m (AMSL)
16R Localiser IKF 111.50 MHz 18 nm / 33 km 149.63° 157.03° - 141 ft / 43 m (AMSL)
16R Glidescope IKF 111.50 MHz 10 nm / 19 km 149.62° 157.02° 3.00° 141 ft / 43 m (AMSL)
16R DME IKF 111.50 MHz 18 nm / 33 km - - - 145 ft / 44 m (AMSL)
34L Localiser IYQ 111.90 MHz 18 nm / 33 km 329.61° 337.01° - 141 ft / 43 m (AMSL)
34L Glidescope IYQ 111.90 MHz 10 nm / 19 km 329.62° 337.02° 3.00° 141 ft / 43 m (AMSL)
34L DME IYQ 111.90 MHz 18 nm / 33 km - - - 153 ft / 47 m (AMSL)
34R Localiser ITJ 110.90 MHz 18 nm / 33 km 329.62° 337.02° - 141 ft / 43 m (AMSL)
34R Glidescope ITJ 110.90 MHz 10 nm / 19 km 329.62° 337.02° 3.00° 141 ft / 43 m (AMSL)
34R DME ITJ 110.90 MHz 18 nm / 33 km - - - 148 ft / 45 m (AMSL)

Popular Alternatives